Passyunk, Pennsylvania
Current Conditions -  °F | °C
As of 2:54 AM on Thursday 29 Jan 2015 (Local Time) from KPHL Reporting Station
Clear Clear  
Wind Chill: 16°   Ceiling: Unl
Heat Index: 24°   Visibility: 10mi
Dew Point:   Wind: 7mph
Humidity: 40%   Direction: 10°N
Pressure: 30.32"   Gusts: NA
Location:  39.911°N, 75.1534°W
Report Text: KPHL 290754Z 01006KT 10SM CLR M04/M16 A3032 RMK AO2 SLP267 T10441161 $
Loading
Personal Weather Stations






























Interactive Weather Map New forecast layout! Learn more

10-Day Weather Forecast

Advertisements
Track Severe Weather on mobile